createdAt,value
2022-08-20T00:00:38.214Z,1005.86
2022-08-20T00:01:38.281Z,1005.86
2022-08-20T00:02:38.186Z,1005.91
2022-08-20T00:03:38.208Z,1005.91
2022-08-20T00:04:38.757Z,1005.92
2022-08-20T00:05:38.161Z,1005.95
2022-08-20T00:06:38.139Z,1005.95
2022-08-20T00:07:38.129Z,1005.94
2022-08-20T00:08:38.106Z,1005.99
2022-08-20T00:09:38.117Z,1006.02
2022-08-20T00:10:38.112Z,1006.08
2022-08-20T00:11:38.093Z,1006.08
2022-08-20T00:12:38.074Z,1006.06
2022-08-20T00:13:38.059Z,1006.08
2022-08-20T00:14:38.045Z,1006.10
2022-08-20T00:15:38.055Z,1006.12
2022-08-20T00:16:38.028Z,1006.10
2022-08-20T00:17:38.024Z,1006.10
2022-08-20T00:18:38.001Z,1006.10
2022-08-20T00:19:37.997Z,1006.06
2022-08-20T00:20:38.005Z,1006.04
2022-08-20T00:21:37.987Z,1006.07
2022-08-20T00:22:37.959Z,1006.08
2022-08-20T00:23:37.962Z,1006.06
2022-08-20T00:24:37.941Z,1006.08
2022-08-20T00:25:37.932Z,1006.10
2022-08-20T00:26:37.924Z,1006.11
2022-08-20T00:27:37.924Z,1006.12
2022-08-20T00:28:37.900Z,1006.14
2022-08-20T00:29:37.903Z,1006.12
2022-08-20T00:30:37.869Z,1006.14
2022-08-20T00:31:37.882Z,1006.15
2022-08-20T00:32:37.862Z,1006.15
2022-08-20T00:33:37.872Z,1006.13
2022-08-20T00:34:37.840Z,1006.11
2022-08-20T00:35:37.816Z,1006.12
2022-08-20T00:36:37.821Z,1006.10
2022-08-20T00:37:37.811Z,1006.15
2022-08-20T00:38:37.799Z,1006.13
2022-08-20T00:39:37.834Z,1006.11
2022-08-20T00:40:37.781Z,1006.14
2022-08-20T00:41:37.778Z,1006.12
2022-08-20T00:42:37.741Z,1006.16
2022-08-20T00:43:37.752Z,1006.14
2022-08-20T00:44:37.743Z,1006.11
2022-08-20T00:45:37.720Z,1006.11
2022-08-20T00:46:37.714Z,1006.08
2022-08-20T00:47:37.714Z,1006.07
2022-08-20T00:48:37.679Z,1006.10
2022-08-20T00:49:37.675Z,1006.08
2022-08-20T00:50:37.681Z,1006.10
2022-08-20T00:51:37.664Z,1006.12
2022-08-20T00:52:37.642Z,1006.08
2022-08-20T00:53:37.630Z,1006.09
2022-08-20T00:54:37.609Z,1006.11
2022-08-20T00:55:37.612Z,1006.13
2022-08-20T00:56:37.623Z,1006.14
2022-08-20T00:57:43.890Z,1006.13
2022-08-20T00:58:37.581Z,1006.12
2022-08-20T00:59:37.564Z,1006.12
2022-08-20T01:00:37.548Z,1006.11
2022-08-20T01:01:52.728Z,1006.09
2022-08-20T01:02:37.537Z,1006.11
2022-08-20T01:03:37.534Z,1006.12
2022-08-20T01:04:37.521Z,1006.17
2022-08-20T01:05:37.510Z,1006.15
2022-08-20T01:06:37.511Z,1006.16
2022-08-20T01:07:37.473Z,1006.16
2022-08-20T01:08:37.452Z,1006.18
2022-08-20T01:09:57.846Z,1006.17
2022-08-20T01:10:37.450Z,1006.19
2022-08-20T01:11:38.134Z,1006.20
2022-08-20T01:12:37.435Z,1006.22
2022-08-20T01:13:37.416Z,1006.21
2022-08-20T01:14:37.390Z,1006.19
2022-08-20T01:15:41.240Z,1006.22
2022-08-20T01:16:37.398Z,1006.23
2022-08-20T01:17:37.386Z,1006.23
2022-08-20T01:18:37.352Z,1006.23
2022-08-20T01:19:37.357Z,1006.20
2022-08-20T01:20:37.334Z,1006.22
2022-08-20T01:21:37.327Z,1006.25
2022-08-20T01:22:37.345Z,1006.25
2022-08-20T01:23:37.293Z,1006.26
2022-08-20T01:24:37.290Z,1006.24
2022-08-20T01:25:37.301Z,1006.28
2022-08-20T01:26:37.257Z,1006.29
2022-08-20T01:27:39.491Z,1006.28
2022-08-20T01:28:37.255Z,1006.25
2022-08-20T01:29:37.239Z,1006.23
2022-08-20T01:30:37.213Z,1006.27
2022-08-20T01:31:37.243Z,1006.24
2022-08-20T01:34:04.491Z,1006.28
2022-08-20T01:34:09.327Z,1006.25
2022-08-20T01:35:09.343Z,1006.27
2022-08-20T01:36:09.324Z,1006.26
2022-08-20T01:37:09.329Z,1006.24
2022-08-20T01:38:09.294Z,1006.24
2022-08-20T01:39:09.290Z,1006.21
2022-08-20T01:40:09.455Z,1006.22
2022-08-20T01:41:09.262Z,1006.20
2022-08-20T01:42:09.255Z,1006.23
2022-08-20T01:43:09.758Z,1006.22
2022-08-20T01:44:09.228Z,1006.21
2022-08-20T01:45:09.231Z,1006.24
2022-08-20T01:46:09.189Z,1006.24
2022-08-20T01:47:09.190Z,1006.25
2022-08-20T01:48:09.681Z,1006.27
2022-08-20T01:49:12.464Z,1006.28
2022-08-20T01:50:09.164Z,1006.26
2022-08-20T01:51:09.167Z,1006.27
2022-08-20T01:52:09.132Z,1006.28
2022-08-20T01:53:09.129Z,1006.28
2022-08-20T01:54:09.135Z,1006.29
2022-08-20T01:55:09.144Z,1006.29
2022-08-20T01:56:09.090Z,1006.31
2022-08-20T01:57:09.069Z,1006.33
2022-08-20T01:58:09.056Z,1006.29
2022-08-20T01:59:09.067Z,1006.29
2022-08-20T02:00:09.078Z,1006.30
2022-08-20T02:01:09.117Z,1006.34
2022-08-20T02:02:09.016Z,1006.35
2022-08-20T02:03:09.016Z,1006.31
2022-08-20T02:04:08.998Z,1006.32
2022-08-20T02:05:09.009Z,1006.34
2022-08-20T02:06:08.972Z,1006.30
2022-08-20T02:07:08.960Z,1006.33
2022-08-20T02:08:08.958Z,1006.30
2022-08-20T02:09:12.136Z,1006.31
2022-08-20T02:10:08.950Z,1006.34
2022-08-20T02:11:08.948Z,1006.30
2022-08-20T02:12:08.908Z,1006.30
2022-08-20T02:13:08.918Z,1006.31
2022-08-20T02:14:08.893Z,1006.33
2022-08-20T02:15:08.883Z,1006.31
2022-08-20T02:16:08.875Z,1006.33
2022-08-20T02:17:08.886Z,1006.34
2022-08-20T02:18:08.852Z,1006.34
2022-08-20T02:19:08.838Z,1006.37
2022-08-20T02:20:08.831Z,1006.37
2022-08-20T02:21:08.808Z,1006.40
2022-08-20T02:22:08.819Z,1006.40
2022-08-20T02:23:08.821Z,1006.41
2022-08-20T02:24:08.780Z,1006.42
2022-08-20T02:25:08.777Z,1006.42
2022-08-20T02:26:08.749Z,1006.39
2022-08-20T02:27:08.745Z,1006.42
2022-08-20T02:28:08.739Z,1006.39
2022-08-20T02:29:08.716Z,1006.41
2022-08-20T02:30:08.707Z,1006.42
2022-08-20T02:31:08.711Z,1006.43
2022-08-20T02:32:24.227Z,1006.44
2022-08-20T02:33:08.702Z,1006.45
2022-08-20T02:34:21.961Z,1006.50
2022-08-20T02:35:08.660Z,1006.49
2022-08-20T02:36:08.642Z,1006.50
2022-08-20T02:37:08.648Z,1006.49
2022-08-20T02:38:08.613Z,1006.48
2022-08-20T02:39:08.626Z,1006.51
2022-08-20T02:40:08.666Z,1006.53
2022-08-20T02:41:08.585Z,1006.53
2022-08-20T02:42:08.581Z,1006.51
2022-08-20T02:43:08.595Z,1006.53
2022-08-20T02:44:08.551Z,1006.53
2022-08-20T02:45:08.557Z,1006.54
2022-08-20T02:46:08.546Z,1006.55
2022-08-20T02:47:08.521Z,1006.59
2022-08-20T02:48:08.501Z,1006.53
2022-08-20T02:49:08.523Z,1006.55
2022-08-20T02:50:08.493Z,1006.58
2022-08-20T02:51:08.472Z,1006.53
2022-08-20T02:52:08.455Z,1006.56
2022-08-20T02:53:08.460Z,1006.54
2022-08-20T02:54:08.441Z,1006.55
2022-08-20T02:55:08.462Z,1006.56
2022-08-20T02:56:08.438Z,1006.53
2022-08-20T02:57:08.409Z,1006.54
2022-08-20T02:58:08.394Z,1006.53
2022-08-20T02:59:08.387Z,1006.51
2022-08-20T03:00:08.390Z,1006.50
2022-08-20T03:01:08.385Z,1006.51
2022-08-20T03:02:08.358Z,1006.49
2022-08-20T03:03:08.352Z,1006.47
2022-08-20T03:04:08.332Z,1006.44
2022-08-20T03:05:08.339Z,1006.46
2022-08-20T03:06:08.317Z,1006.41
2022-08-20T03:07:08.290Z,1006.37
2022-08-20T03:08:08.297Z,1006.34
2022-08-20T03:09:08.270Z,1006.36
2022-08-20T03:10:08.271Z,1006.33
2022-08-20T03:11:08.259Z,1006.27
2022-08-20T03:12:08.257Z,1006.30
2022-08-20T03:13:08.243Z,1006.27
2022-08-20T03:14:08.236Z,1006.23
2022-08-20T03:15:08.206Z,1006.26
2022-08-20T03:16:08.210Z,1006.26
2022-08-20T03:17:08.217Z,1006.24
2022-08-20T03:18:08.170Z,1006.29
2022-08-20T03:19:08.175Z,1006.28
2022-08-20T03:20:08.151Z,1006.25
2022-08-20T03:21:08.146Z,1006.26
2022-08-20T03:22:08.150Z,1006.30
2022-08-20T03:23:08.130Z,1006.28
2022-08-20T03:24:08.106Z,1006.28
2022-08-20T03:25:08.110Z,1006.26
2022-08-20T03:26:08.075Z,1006.22
2022-08-20T03:27:08.130Z,1006.25
2022-08-20T03:28:08.066Z,1006.22
2022-08-20T03:29:08.058Z,1006.25
2022-08-20T03:30:08.043Z,1006.21
2022-08-20T03:31:08.028Z,1006.18
2022-08-20T03:32:08.013Z,1006.21
2022-08-20T03:33:08.022Z,1006.17
2022-08-20T03:34:08.001Z,1006.21
2022-08-20T03:35:07.984Z,1006.22
2022-08-20T03:36:07.983Z,1006.17
2022-08-20T03:37:07.968Z,1006.18
2022-08-20T03:38:07.952Z,1006.23
2022-08-20T03:39:07.961Z,1006.20
2022-08-20T03:40:07.964Z,1006.21
2022-08-20T03:41:07.914Z,1006.24
2022-08-20T03:42:07.921Z,1006.24
2022-08-20T03:43:07.924Z,1006.24
2022-08-20T03:44:07.892Z,1006.24
2022-08-20T03:45:07.873Z,1006.22
2022-08-20T03:46:22.225Z,1006.21
2022-08-20T03:47:07.877Z,1006.17
2022-08-20T03:48:07.840Z,1006.19
2022-08-20T03:49:07.830Z,1006.19
2022-08-20T03:50:07.820Z,1006.18
2022-08-20T03:51:07.803Z,1006.16
2022-08-20T03:52:07.795Z,1006.20
2022-08-20T03:53:07.784Z,1006.19
2022-08-20T03:54:07.793Z,1006.22
2022-08-20T03:55:07.759Z,1006.20
2022-08-20T03:56:07.769Z,1006.18
2022-08-20T03:57:12.986Z,1006.22
2022-08-20T03:58:07.740Z,1006.21
2022-08-20T03:59:07.726Z,1006.20
2022-08-20T04:00:07.757Z,1006.21
2022-08-20T04:01:07.715Z,1006.23
2022-08-20T04:02:07.765Z,1006.23
2022-08-20T04:03:07.670Z,1006.21
2022-08-20T04:04:12.508Z,1006.21
2022-08-20T04:05:07.661Z,1006.21
2022-08-20T04:06:07.670Z,1006.22
2022-08-20T04:07:07.635Z,1006.23
2022-08-20T04:08:07.613Z,1006.29
2022-08-20T04:09:07.615Z,1006.28
2022-08-20T04:10:07.601Z,1006.28
2022-08-20T04:11:07.601Z,1006.32
2022-08-20T04:12:07.568Z,1006.31
2022-08-20T04:13:07.574Z,1006.37
2022-08-20T04:14:07.547Z,1006.33
2022-08-20T04:15:07.542Z,1006.35
2022-08-20T04:16:07.538Z,1006.44
2022-08-20T04:17:07.539Z,1006.44
2022-08-20T04:18:07.510Z,1006.45
2022-08-20T04:19:07.550Z,1006.49
2022-08-20T04:20:07.522Z,1006.49
2022-08-20T04:21:07.472Z,1006.53
2022-08-20T04:22:07.474Z,1006.52
2022-08-20T04:23:07.438Z,1006.51
2022-08-20T04:24:07.454Z,1006.48
2022-08-20T04:25:07.474Z,1006.50
2022-08-20T04:26:07.423Z,1006.44
2022-08-20T04:27:07.397Z,1006.45
2022-08-20T04:28:07.381Z,1006.42
2022-08-20T04:29:07.389Z,1006.42
2022-08-20T04:30:07.386Z,1006.41
2022-08-20T04:31:07.362Z,1006.37
2022-08-20T04:32:07.356Z,1006.38
2022-08-20T04:33:07.325Z,1006.35
2022-08-20T04:34:07.320Z,1006.37
2022-08-20T04:35:07.319Z,1006.34
2022-08-20T04:36:07.315Z,1006.37
2022-08-20T04:37:17.006Z,1006.38
2022-08-20T04:38:07.282Z,1006.37
2022-08-20T04:39:07.272Z,1006.40
2022-08-20T04:40:07.336Z,1006.43
2022-08-20T04:41:07.243Z,1006.44
2022-08-20T04:42:07.237Z,1006.45
2022-08-20T04:43:07.216Z,1006.45
2022-08-20T04:44:07.224Z,1006.47
2022-08-20T04:45:07.200Z,1006.43
2022-08-20T04:46:07.211Z,1006.43
2022-08-20T04:47:07.191Z,1006.43
2022-08-20T04:48:10.583Z,1006.44
2022-08-20T04:49:07.153Z,1006.44
2022-08-20T04:50:07.177Z,1006.42
2022-08-20T04:51:07.137Z,1006.50
2022-08-20T04:52:07.139Z,1006.49
2022-08-20T04:53:07.115Z,1006.54
2022-08-20T04:54:07.107Z,1006.50
2022-08-20T04:55:07.092Z,1006.53
2022-08-20T04:56:07.078Z,1006.55
2022-08-20T04:57:07.077Z,1006.52
2022-08-20T04:58:07.066Z,1006.53
2022-08-20T04:59:07.042Z,1006.51
2022-08-20T05:00:07.029Z,1006.53
2022-08-20T05:01:07.038Z,1006.54
2022-08-20T05:02:07.004Z,1006.54
2022-08-20T05:03:07.007Z,1006.60
2022-08-20T05:04:07.003Z,1006.60
2022-08-20T05:05:06.985Z,1006.60
2022-08-20T05:06:06.963Z,1006.65
2022-08-20T05:07:06.941Z,1006.63
2022-08-20T05:08:06.941Z,1006.71
2022-08-20T05:09:06.949Z,1006.70
2022-08-20T05:10:06.929Z,1006.71
2022-08-20T05:11:34.053Z,1006.74
2022-08-20T05:12:06.903Z,1006.76
2022-08-20T05:13:06.880Z,1006.76
2022-08-20T05:14:08.128Z,1006.75
2022-08-20T05:15:06.885Z,1006.76
2022-08-20T05:16:06.858Z,1006.74
2022-08-20T05:17:06.842Z,1006.80
2022-08-20T05:18:06.835Z,1006.77
2022-08-20T05:19:06.808Z,1006.75
2022-08-20T05:20:06.816Z,1006.75
2022-08-20T05:21:06.785Z,1006.72
2022-08-20T05:22:06.778Z,1006.71
2022-08-20T05:23:06.777Z,1006.67
2022-08-20T05:24:06.775Z,1006.70
2022-08-20T05:25:06.756Z,1006.69
2022-08-20T05:26:06.758Z,1006.72
2022-08-20T05:27:06.724Z,1006.66
2022-08-20T05:28:06.725Z,1006.68
2022-08-20T05:29:06.716Z,1006.66
2022-08-20T05:30:06.713Z,1006.69
2022-08-20T05:31:06.690Z,1006.69
2022-08-20T05:32:06.675Z,1006.70
2022-08-20T05:33:06.684Z,1006.72
2022-08-20T05:34:06.696Z,1006.72
2022-08-20T05:35:06.643Z,1006.73
2022-08-20T05:36:06.648Z,1006.72
2022-08-20T05:37:07.718Z,1006.73
2022-08-20T05:38:06.620Z,1006.71
2022-08-20T05:39:06.598Z,1006.70
2022-08-20T05:40:06.618Z,1006.65
2022-08-20T05:41:06.578Z,1006.66
2022-08-20T05:42:06.563Z,1006.64
2022-08-20T05:43:06.548Z,1006.67
2022-08-20T05:44:06.558Z,1006.66
2022-08-20T05:45:11.115Z,1006.65
2022-08-20T05:46:06.506Z,1006.70
2022-08-20T05:47:06.515Z,1006.71
2022-08-20T05:48:06.509Z,1006.76
2022-08-20T05:49:06.489Z,1006.71
2022-08-20T05:50:06.475Z,1006.74
2022-08-20T05:51:06.445Z,1006.77
2022-08-20T05:52:06.470Z,1006.78
2022-08-20T05:53:06.460Z,1006.76
2022-08-20T05:54:06.428Z,1006.78
2022-08-20T05:55:06.424Z,1006.77
2022-08-20T05:56:06.396Z,1006.78
2022-08-20T05:57:06.402Z,1006.81
2022-08-20T05:58:06.398Z,1006.83
2022-08-20T05:59:06.360Z,1006.84
2022-08-20T06:00:06.389Z,1006.87
2022-08-20T06:01:06.414Z,1006.87
2022-08-20T06:02:06.361Z,1006.86
2022-08-20T06:03:06.342Z,1006.89
2022-08-20T06:04:06.311Z,1006.83
2022-08-20T06:05:06.293Z,1006.87
2022-08-20T06:06:18.409Z,1006.84
2022-08-20T06:07:06.293Z,1006.85
2022-08-20T06:08:07.723Z,1006.84
2022-08-20T06:09:06.247Z,1006.87
2022-08-20T06:10:06.247Z,1006.87
2022-08-20T06:11:06.230Z,1006.89
2022-08-20T06:12:06.390Z,1006.89
2022-08-20T06:13:06.232Z,1006.96
2022-08-20T06:14:06.214Z,1006.91
2022-08-20T06:15:06.201Z,1006.97
2022-08-20T06:16:06.809Z,1006.93
2022-08-20T06:17:06.182Z,1006.91
2022-08-20T06:18:13.033Z,1006.93
2022-08-20T06:19:06.170Z,1006.94
2022-08-20T06:20:06.185Z,1006.97
2022-08-20T06:21:06.141Z,1006.95
2022-08-20T06:22:17.987Z,1006.97
2022-08-20T06:23:06.104Z,1007.01
2022-08-20T06:24:07.118Z,1006.96
2022-08-20T06:25:06.118Z,1006.96
2022-08-20T06:26:06.140Z,1006.98
2022-08-20T06:27:06.627Z,1006.98
2022-08-20T06:28:09.112Z,1006.99
2022-08-20T06:29:06.694Z,1007.01
2022-08-20T06:30:06.120Z,1007.01
2022-08-20T06:31:07.112Z,1007.02
2022-08-20T06:32:07.018Z,1007.05
2022-08-20T06:33:06.719Z,1007.07
2022-08-20T06:34:07.635Z,1007.09
2022-08-20T06:35:07.036Z,1007.12
2022-08-20T06:36:06.740Z,1007.08
2022-08-20T06:37:06.031Z,1007.09
2022-08-20T06:38:08.117Z,1007.11
2022-08-20T06:39:06.757Z,1007.14
2022-08-20T06:40:08.185Z,1007.16
2022-08-20T06:41:06.616Z,1007.16
2022-08-20T06:42:05.966Z,1007.13
2022-08-20T06:43:05.965Z,1007.12
2022-08-20T06:44:06.693Z,1007.13
2022-08-20T06:45:05.990Z,1007.13
2022-08-20T06:46:05.983Z,1007.16
2022-08-20T06:47:06.620Z,1007.14
2022-08-20T06:48:05.895Z,1007.18
2022-08-20T06:49:06.727Z,1007.17
2022-08-20T06:50:05.908Z,1007.20
2022-08-20T06:51:06.800Z,1007.14
2022-08-20T06:52:05.844Z,1007.14
2022-08-20T06:53:06.054Z,1007.15
2022-08-20T06:54:06.762Z,1007.11
2022-08-20T06:55:07.120Z,1007.12
2022-08-20T06:56:05.852Z,1007.15
2022-08-20T06:57:05.776Z,1007.14
2022-08-20T06:58:07.626Z,1007.14
2022-08-20T06:59:07.203Z,1007.11
2022-08-20T07:00:06.676Z,1007.13
2022-08-20T07:01:09.165Z,1007.14
2022-08-20T07:02:06.623Z,1007.16
2022-08-20T07:03:06.721Z,1007.17
2022-08-20T07:04:06.626Z,1007.16
2022-08-20T07:05:06.726Z,1007.16
2022-08-20T07:06:06.631Z,1007.20
2022-08-20T07:07:06.230Z,1007.20
2022-08-20T07:08:05.679Z,1007.21
2022-08-20T07:09:06.578Z,1007.21
2022-08-20T07:10:06.205Z,1007.25
2022-08-20T07:11:05.654Z,1007.24
2022-08-20T07:12:05.755Z,1007.25
2022-08-20T07:13:06.259Z,1007.30
2022-08-20T07:14:06.550Z,1007.29
2022-08-20T07:15:05.596Z,1007.30
2022-08-20T07:16:05.576Z,1007.33
2022-08-20T07:17:06.223Z,1007.34
2022-08-20T07:18:07.130Z,1007.32
2022-08-20T07:19:05.549Z,1007.39
2022-08-20T07:20:06.129Z,1007.43
2022-08-20T07:21:06.129Z,1007.39
2022-08-20T07:22:05.519Z,1007.45
2022-08-20T07:23:06.138Z,1007.45
2022-08-20T07:24:05.534Z,1007.48
2022-08-20T07:25:05.481Z,1007.44
2022-08-20T07:26:05.497Z,1007.46
2022-08-20T07:27:07.140Z,1007.50
2022-08-20T07:28:06.133Z,1007.49
2022-08-20T07:29:06.139Z,1007.54
2022-08-20T07:30:09.022Z,1007.58
2022-08-20T07:31:12.343Z,1007.59
2022-08-20T07:32:05.438Z,1007.58
2022-08-20T07:33:07.136Z,1007.58
2022-08-20T07:34:06.239Z,1007.59
2022-08-20T07:35:05.424Z,1007.62
2022-08-20T07:36:05.402Z,1007.61
2022-08-20T07:37:06.251Z,1007.62
2022-08-20T07:38:05.400Z,1007.65
2022-08-20T07:39:06.260Z,1007.68
2022-08-20T07:40:05.475Z,1007.66
2022-08-20T07:41:06.140Z,1007.65
2022-08-20T07:42:05.289Z,1007.63
2022-08-20T07:43:07.136Z,1007.66
2022-08-20T07:44:06.230Z,1007.64
2022-08-20T07:45:07.153Z,1007.62
2022-08-20T07:46:07.140Z,1007.57
2022-08-20T07:47:05.353Z,1007.56
2022-08-20T07:48:05.234Z,1007.54
2022-08-20T07:49:07.140Z,1007.53
2022-08-20T07:50:05.271Z,1007.52
2022-08-20T07:51:05.177Z,1007.50
2022-08-20T07:52:05.187Z,1007.53
2022-08-20T07:53:07.143Z,1007.51
2022-08-20T07:54:06.144Z,1007.49
2022-08-20T07:55:06.140Z,1007.47
2022-08-20T07:56:05.145Z,1007.50
2022-08-20T07:57:05.132Z,1007.54
2022-08-20T07:58:05.738Z,1007.48
2022-08-20T07:59:05.646Z,1007.48
2022-08-20T08:00:05.071Z,1007.48
2022-08-20T08:01:05.782Z,1007.50
2022-08-20T08:02:06.653Z,1007.49
2022-08-20T08:03:05.737Z,1007.54
2022-08-20T08:04:06.649Z,1007.53
2022-08-20T08:05:05.000Z,1007.53
2022-08-20T08:06:05.052Z,1007.56
2022-08-20T08:07:05.729Z,1007.57
2022-08-20T08:08:07.313Z,1007.60
2022-08-20T08:09:06.152Z,1007.61
2022-08-20T08:10:05.027Z,1007.63
2022-08-20T08:11:05.734Z,1007.62
2022-08-20T08:12:06.648Z,1007.64
2022-08-20T08:13:05.649Z,1007.66
2022-08-20T08:14:04.930Z,1007.67
2022-08-20T08:15:05.650Z,1007.70
2022-08-20T08:16:04.924Z,1007.66
2022-08-20T08:17:05.673Z,1007.69
2022-08-20T08:18:05.774Z,1007.70
2022-08-20T08:19:05.651Z,1007.70
2022-08-20T08:20:04.885Z,1007.72
2022-08-20T08:21:05.751Z,1007.71
2022-08-20T08:22:06.675Z,1007.71
2022-08-20T08:23:06.153Z,1007.73
2022-08-20T08:24:06.659Z,1007.76
2022-08-20T08:25:07.153Z,1007.81
2022-08-20T08:26:06.164Z,1007.79
2022-08-20T08:27:05.738Z,1007.83
2022-08-20T08:28:05.652Z,1007.79
2022-08-20T08:29:06.672Z,1007.79
2022-08-20T08:30:05.652Z,1007.77
2022-08-20T08:31:04.741Z,1007.81
2022-08-20T08:32:06.154Z,1007.81
2022-08-20T08:33:05.655Z,1007.82
2022-08-20T08:34:08.157Z,1007.79
2022-08-20T08:35:05.688Z,1007.81
2022-08-20T08:36:05.789Z,1007.83
2022-08-20T08:37:04.787Z,1007.80
2022-08-20T08:38:04.779Z,1007.80
2022-08-20T08:39:04.645Z,1007.82
2022-08-20T08:40:05.245Z,1007.81
2022-08-20T08:41:06.160Z,1007.85
2022-08-20T08:42:04.723Z,1007.83
2022-08-20T08:43:05.184Z,1007.80
2022-08-20T08:44:05.661Z,1007.79
2022-08-20T08:45:04.628Z,1007.78
2022-08-20T08:46:06.165Z,1007.79
2022-08-20T08:47:06.160Z,1007.80
2022-08-20T08:48:06.163Z,1007.82
2022-08-20T08:49:05.177Z,1007.81
2022-08-20T08:50:06.169Z,1007.81
2022-08-20T08:51:05.774Z,1007.84
2022-08-20T08:52:05.161Z,1007.85
2022-08-20T08:53:05.162Z,1007.90
2022-08-20T08:54:08.165Z,1007.86
2022-08-20T08:55:05.205Z,1007.89
2022-08-20T08:56:05.622Z,1007.92
2022-08-20T08:57:05.285Z,1007.89
2022-08-20T08:58:17.171Z,1007.89
2022-08-20T08:59:06.165Z,1007.91
2022-08-20T09:00:06.180Z,1007.96
2022-08-20T09:01:09.695Z,1007.95
2022-08-20T09:02:04.494Z,1007.92
2022-08-20T09:03:04.413Z,1007.92
2022-08-20T09:04:05.265Z,1007.95
2022-08-20T09:05:05.682Z,1007.93
2022-08-20T09:06:04.404Z,1007.98
2022-08-20T09:07:05.107Z,1007.98
2022-08-20T09:08:05.169Z,1008.00
2022-08-20T09:09:04.378Z,1008.02
2022-08-20T09:10:04.383Z,1008.02
2022-08-20T09:11:05.202Z,1008.03
2022-08-20T09:12:05.169Z,1008.07
2022-08-20T09:13:04.300Z,1008.05
2022-08-20T09:14:05.182Z,1008.05
2022-08-20T09:15:05.169Z,1008.08
2022-08-20T09:16:07.191Z,1008.10
2022-08-20T09:17:05.174Z,1008.07
2022-08-20T09:18:08.673Z,1008.11
2022-08-20T09:19:04.254Z,1008.11
2022-08-20T09:20:05.695Z,1008.11
2022-08-20T09:21:04.767Z,1008.12
2022-08-20T09:22:04.779Z,1008.15
2022-08-20T09:23:04.290Z,1008.12
2022-08-20T09:24:05.601Z,1008.16
2022-08-20T09:25:04.672Z,1008.18
2022-08-20T09:26:04.729Z,1008.18
2022-08-20T09:27:04.188Z,1008.17
2022-08-20T09:28:04.194Z,1008.19
2022-08-20T09:29:04.713Z,1008.17
2022-08-20T09:30:05.674Z,1008.15
2022-08-20T09:31:04.695Z,1008.17
2022-08-20T09:32:04.775Z,1008.14
2022-08-20T09:33:04.095Z,1008.14
2022-08-20T09:34:04.134Z,1008.13
2022-08-20T09:35:06.638Z,1008.14
2022-08-20T09:36:04.676Z,1008.12
2022-08-20T09:37:04.099Z,1008.10
2022-08-20T09:38:04.024Z,1008.16
2022-08-20T09:39:04.777Z,1008.15
2022-08-20T09:40:04.759Z,1008.12
2022-08-20T09:41:05.678Z,1008.17
2022-08-20T09:42:04.057Z,1008.14
2022-08-20T09:43:05.179Z,1008.14
2022-08-20T09:44:03.980Z,1008.15
2022-08-20T09:45:04.780Z,1008.18
2022-08-20T09:46:03.927Z,1008.14
2022-08-20T09:47:06.186Z,1008.15
2022-08-20T09:48:04.021Z,1008.15
2022-08-20T09:49:03.926Z,1008.15
2022-08-20T09:50:03.955Z,1008.17
2022-08-20T09:51:04.686Z,1008.20
2022-08-20T09:52:04.682Z,1008.18
2022-08-20T09:53:05.712Z,1008.16
2022-08-20T09:54:08.682Z,1008.15
2022-08-20T09:55:03.861Z,1008.16
2022-08-20T09:56:03.889Z,1008.17
2022-08-20T09:57:03.899Z,1008.14
2022-08-20T09:58:03.867Z,1008.15
2022-08-20T09:59:04.782Z,1008.18
2022-08-20T10:00:03.958Z,1008.15
2022-08-20T10:01:03.797Z,1008.14
2022-08-20T10:02:03.890Z,1008.15
2022-08-20T10:03:05.686Z,1008.16
2022-08-20T10:04:05.187Z,1008.15
2022-08-20T10:05:04.691Z,1008.13
2022-08-20T10:06:05.187Z,1008.17
2022-08-20T10:07:04.629Z,1008.16
2022-08-20T10:08:05.187Z,1008.14
2022-08-20T10:09:05.188Z,1008.15
2022-08-20T10:10:05.317Z,1008.14
2022-08-20T10:11:05.689Z,1008.12
2022-08-20T10:12:05.690Z,1008.16
2022-08-20T10:13:03.643Z,1008.15
2022-08-20T10:14:04.777Z,1008.14
2022-08-20T10:15:04.786Z,1008.13
2022-08-20T10:16:05.193Z,1008.16
2022-08-20T10:17:03.622Z,1008.18
2022-08-20T10:18:04.192Z,1008.20
2022-08-20T10:19:04.596Z,1008.22
2022-08-20T10:20:04.193Z,1008.22
2022-08-20T10:21:05.236Z,1008.25
2022-08-20T10:22:03.548Z,1008.21
2022-08-20T10:23:03.620Z,1008.18
2022-08-20T10:24:04.281Z,1008.18
2022-08-20T10:25:04.129Z,1008.18
2022-08-20T10:26:04.292Z,1008.20
2022-08-20T10:27:04.303Z,1008.18
2022-08-20T10:28:04.078Z,1008.18
2022-08-20T10:29:05.195Z,1008.18
2022-08-20T10:30:05.695Z,1008.21
2022-08-20T10:31:03.764Z,1008.17
2022-08-20T10:32:03.570Z,1008.17
2022-08-20T10:33:05.698Z,1008.19
2022-08-20T10:34:04.201Z,1008.14
2022-08-20T10:35:03.406Z,1008.15
2022-08-20T10:36:04.827Z,1008.14
2022-08-20T10:37:04.196Z,1008.12
2022-08-20T10:38:03.364Z,1008.16
2022-08-20T10:39:04.324Z,1008.12
2022-08-20T10:40:03.399Z,1008.14
2022-08-20T10:41:05.236Z,1008.12
2022-08-20T10:42:03.427Z,1008.08
2022-08-20T10:43:04.698Z,1008.09
2022-08-20T10:44:04.207Z,1008.11
2022-08-20T10:45:03.298Z,1008.12
2022-08-20T10:46:03.402Z,1008.09
2022-08-20T10:47:05.284Z,1008.11
2022-08-20T10:48:03.291Z,1008.12
2022-08-20T10:49:03.293Z,1008.19
2022-08-20T10:50:03.282Z,1008.12
2022-08-20T10:51:05.207Z,1008.16
2022-08-20T10:52:05.945Z,1008.16
2022-08-20T10:53:04.324Z,1008.13
2022-08-20T10:54:06.292Z,1008.14
2022-08-20T10:55:04.706Z,1008.15
2022-08-20T10:56:04.203Z,1008.13
2022-08-20T10:57:04.734Z,1008.14
2022-08-20T10:58:04.710Z,1008.11
2022-08-20T10:59:03.823Z,1008.19
2022-08-20T11:00:03.169Z,1008.14
2022-08-20T11:01:03.783Z,1008.22
2022-08-20T11:02:03.902Z,1008.24
2022-08-20T11:03:04.708Z,1008.23
2022-08-20T11:04:04.722Z,1008.26
2022-08-20T11:05:03.786Z,1008.28
2022-08-20T11:06:03.810Z,1008.26
2022-08-20T11:07:03.710Z,1008.29
2022-08-20T11:08:04.028Z,1008.32
2022-08-20T11:09:03.713Z,1008.28
2022-08-20T11:10:03.739Z,1008.28
2022-08-20T11:11:04.719Z,1008.30
2022-08-20T11:12:03.826Z,1008.26
2022-08-20T11:13:03.720Z,1008.27
2022-08-20T11:14:04.713Z,1008.24
2022-08-20T11:15:03.824Z,1008.27
2022-08-20T11:16:02.961Z,1008.23
2022-08-20T11:17:04.710Z,1008.27
2022-08-20T11:18:03.714Z,1008.28
2022-08-20T11:19:05.215Z,1008.33
2022-08-20T11:20:02.969Z,1008.32
2022-08-20T11:21:03.713Z,1008.31
2022-08-20T11:22:02.899Z,1008.36
2022-08-20T11:23:02.860Z,1008.33
2022-08-20T11:24:03.278Z,1008.37
2022-08-20T11:25:04.715Z,1008.37
2022-08-20T11:26:03.832Z,1008.37
2022-08-20T11:27:03.716Z,1008.35
2022-08-20T11:28:03.847Z,1008.33
2022-08-20T11:29:04.716Z,1008.35
2022-08-20T11:30:04.308Z,1008.35
2022-08-20T11:31:04.721Z,1008.32
2022-08-20T11:32:03.386Z,1008.33
2022-08-20T11:33:03.391Z,1008.31
2022-08-20T11:34:06.536Z,1008.34
2022-08-20T11:35:14.062Z,1008.34
2022-08-20T11:36:03.730Z,1008.34
2022-08-20T11:37:03.334Z,1008.38
2022-08-20T11:38:03.220Z,1008.38
2022-08-20T11:39:03.327Z,1008.38
2022-08-20T11:40:03.706Z,1008.32
2022-08-20T11:41:04.263Z,1008.35
2022-08-20T11:42:02.745Z,1008.36
2022-08-20T11:43:18.511Z,1008.34
2022-08-20T11:44:20.958Z,1008.33
2022-08-20T11:45:02.681Z,1008.33
2022-08-20T11:46:02.761Z,1008.34
2022-08-20T11:47:02.665Z,1008.34
2022-08-20T11:48:02.573Z,1008.35
2022-08-20T11:49:03.190Z,1008.34
2022-08-20T11:50:02.685Z,1008.35
2022-08-20T11:51:02.659Z,1008.38
2022-08-20T11:52:03.229Z,1008.37
2022-08-20T11:53:02.582Z,1008.40
2022-08-20T11:54:03.316Z,1008.41
2022-08-20T11:55:03.846Z,1008.37
2022-08-20T11:56:03.249Z,1008.42
2022-08-20T11:57:03.228Z,1008.39
2022-08-20T11:58:02.519Z,1008.46
2022-08-20T11:59:03.258Z,1008.41
2022-08-20T12:00:03.853Z,1008.41
2022-08-20T12:01:03.246Z,1008.43
2022-08-20T12:02:03.695Z,1008.43
2022-08-20T12:03:04.302Z,1008.46
2022-08-20T12:04:02.449Z,1008.50
2022-08-20T12:05:04.251Z,1008.48
2022-08-20T12:06:03.283Z,1008.53